sensor_id;sensor_type;location;lat;lon;timestamp;temperature;humidity
67603;DHT22;54417;47.454;18.918;2022-09-02T00:04:52;17.21;49.33
67603;DHT22;54417;47.454;18.918;2022-09-02T00:10:16;17.18;49.46
67603;DHT22;54417;47.454;18.918;2022-09-02T00:15:41;17.14;49.12
67603;DHT22;54417;47.454;18.918;2022-09-02T00:21:05;17.11;48.77
67603;DHT22;54417;47.454;18.918;2022-09-02T00:26:29;17.03;49.17
67603;DHT22;54417;47.454;18.918;2022-09-02T00:31:54;16.97;48.97
67603;DHT22;54417;47.454;18.918;2022-09-02T00:37:18;16.99;48.47
67603;DHT22;54417;47.454;18.918;2022-09-02T00:42:42;16.97;48.98
67603;DHT22;54417;47.454;18.918;2022-09-02T00:48:07;17.08;48.39
67603;DHT22;54417;47.454;18.918;2022-09-02T00:53:31;17.23;47.41
67603;DHT22;54417;47.454;18.918;2022-09-02T00:58:55;17.27;47.85
67603;DHT22;54417;47.454;18.918;2022-09-02T01:04:20;17.25;47.41
67603;DHT22;54417;47.454;18.918;2022-09-02T01:09:44;17.27;47.49
67603;DHT22;54417;47.454;18.918;2022-09-02T01:15:10;17.23;46.98
67603;DHT22;54417;47.454;18.918;2022-09-02T01:20:35;17.25;46.84
67603;DHT22;54417;47.454;18.918;2022-09-02T01:26:03;17.25;47.25
67603;DHT22;54417;47.454;18.918;2022-09-02T01:31:28;17.32;47.06
67603;DHT22;54417;47.454;18.918;2022-09-02T01:36:52;17.25;46.95
67603;DHT22;54417;47.454;18.918;2022-09-02T01:42:17;17.25;46.70
67603;DHT22;54417;47.454;18.918;2022-09-02T01:47:41;17.28;46.54
67603;DHT22;54417;47.454;18.918;2022-09-02T01:53:05;17.25;47.16
67603;DHT22;54417;47.454;18.918;2022-09-02T01:58:30;17.15;47.05
67603;DHT22;54417;47.454;18.918;2022-09-02T02:03:54;17.07;47.19
67603;DHT22;54417;47.454;18.918;2022-09-02T02:09:19;17.00;47.20
67603;DHT22;54417;47.454;18.918;2022-09-02T02:14:46;16.94;48.21
67603;DHT22;54417;47.454;18.918;2022-09-02T02:20:12;16.88;47.73
67603;DHT22;54417;47.454;18.918;2022-09-02T02:25:36;16.87;48.09
67603;DHT22;54417;47.454;18.918;2022-09-02T02:31:02;16.88;47.83
67603;DHT22;54417;47.454;18.918;2022-09-02T02:36:26;16.79;50.29
67603;DHT22;54417;47.454;18.918;2022-09-02T02:41:50;16.70;48.54
67603;DHT22;54417;47.454;18.918;2022-09-02T02:47:15;16.66;48.83
67603;DHT22;54417;47.454;18.918;2022-09-02T02:52:40;16.62;48.59
67603;DHT22;54417;47.454;18.918;2022-09-02T02:58:05;16.57;48.83
67603;DHT22;54417;47.454;18.918;2022-09-02T03:03:31;16.51;49.04
67603;DHT22;54417;47.454;18.918;2022-09-02T03:08:55;16.41;48.85
67603;DHT22;54417;47.454;18.918;2022-09-02T03:14:20;16.38;48.86
67603;DHT22;54417;47.454;18.918;2022-09-02T03:19:45;16.28;49.47
67603;DHT22;54417;47.454;18.918;2022-09-02T03:25:11;16.24;49.76
67603;DHT22;54417;47.454;18.918;2022-09-02T03:30:35;16.11;49.99
67603;DHT22;54417;47.454;18.918;2022-09-02T03:36:01;16.12;49.63
67603;DHT22;54417;47.454;18.918;2022-09-02T03:41:26;16.09;50.74
67603;DHT22;54417;47.454;18.918;2022-09-02T03:46:51;16.05;49.92
67603;DHT22;54417;47.454;18.918;2022-09-02T03:52:16;16.12;49.52
67603;DHT22;54417;47.454;18.918;2022-09-02T03:57:41;16.07;49.98
67603;DHT22;54417;47.454;18.918;2022-09-02T04:03:05;16.09;50.28
67603;DHT22;54417;47.454;18.918;2022-09-02T04:08:30;15.98;50.28
67603;DHT22;54417;47.454;18.918;2022-09-02T04:13:57;15.88;51.49
67603;DHT22;54417;47.454;18.918;2022-09-02T04:19:22;15.94;50.53
67603;DHT22;54417;47.454;18.918;2022-09-02T04:24:47;16.02;50.40
67603;DHT22;54417;47.454;18.918;2022-09-02T04:30:12;16.12;50.09
67603;DHT22;54417;47.454;18.918;2022-09-02T04:35:39;16.05;50.94
67603;DHT22;54417;47.454;18.918;2022-09-02T04:41:07;16.17;50.32
67603;DHT22;54417;47.454;18.918;2022-09-02T04:46:32;16.28;50.15
67603;DHT22;54417;47.454;18.918;2022-09-02T04:51:59;16.36;50.21
67603;DHT22;54417;47.454;18.918;2022-09-02T04:57:25;16.52;50.11
67603;DHT22;54417;47.454;18.918;2022-09-02T05:02:49;16.62;49.75
67603;DHT22;54417;47.454;18.918;2022-09-02T05:08:13;16.69;50.12
67603;DHT22;54417;47.454;18.918;2022-09-02T05:13:41;16.79;51.86
67603;DHT22;54417;47.454;18.918;2022-09-02T05:19:06;16.87;49.04
67603;DHT22;54417;47.454;18.918;2022-09-02T05:24:35;16.91;51.16
67603;DHT22;54417;47.454;18.918;2022-09-02T05:30:05;17.04;50.07
67603;DHT22;54417;47.454;18.918;2022-09-02T05:35:30;17.17;49.37
67603;DHT22;54417;47.454;18.918;2022-09-02T05:40:56;17.35;52.41
67603;DHT22;54417;47.454;18.918;2022-09-02T05:46:23;17.38;47.75
67603;DHT22;54417;47.454;18.918;2022-09-02T05:51:50;17.56;51.35
67603;DHT22;54417;47.454;18.918;2022-09-02T05:57:20;17.90;49.13
67603;DHT22;54417;47.454;18.918;2022-09-02T06:02:51;18.00;48.10
67603;DHT22;54417;47.454;18.918;2022-09-02T06:08:28;18.33;49.25
67603;DHT22;54417;47.454;18.918;2022-09-02T06:13:52;18.26;46.71
67603;DHT22;54417;47.454;18.918;2022-09-02T06:19:19;18.50;46.87
67603;DHT22;54417;47.454;18.918;2022-09-02T06:24:46;18.64;46.75
67603;DHT22;54417;47.454;18.918;2022-09-02T06:30:15;18.81;48.04
67603;DHT22;54417;47.454;18.918;2022-09-02T06:35:42;18.91;46.31
67603;DHT22;54417;47.454;18.918;2022-09-02T06:41:10;19.23;45.75
67603;DHT22;54417;47.454;18.918;2022-09-02T06:46:38;19.20;45.76
67603;DHT22;54417;47.454;18.918;2022-09-02T06:52:08;19.57;45.70
67603;DHT22;54417;47.454;18.918;2022-09-02T06:57:31;19.75;45.25
67603;DHT22;54417;47.454;18.918;2022-09-02T07:03:01;19.75;44.64
67603;DHT22;54417;47.454;18.918;2022-09-02T07:08:44;20.12;44.85
67603;DHT22;54417;47.454;18.918;2022-09-02T07:14:09;19.89;44.13
67603;DHT22;54417;47.454;18.918;2022-09-02T07:19:32;19.82;45.85
67603;DHT22;54417;47.454;18.918;2022-09-02T07:24:57;19.74;45.66
67603;DHT22;54417;47.454;18.918;2022-09-02T07:30:22;19.77;45.82
67603;DHT22;54417;47.454;18.918;2022-09-02T07:35:52;19.79;46.97
67603;DHT22;54417;47.454;18.918;2022-09-02T07:41:19;19.43;46.41
67603;DHT22;54417;47.454;18.918;2022-09-02T07:46:44;19.56;47.12
67603;DHT22;54417;47.454;18.918;2022-09-02T07:52:10;19.60;46.47
67603;DHT22;54417;47.454;18.918;2022-09-02T07:57:35;19.70;46.89
67603;DHT22;54417;47.454;18.918;2022-09-02T08:03:00;19.56;45.56
67603;DHT22;54417;47.454;18.918;2022-09-02T08:08:33;19.57;47.90
67603;DHT22;54417;47.454;18.918;2022-09-02T08:13:58;19.73;47.56
67603;DHT22;54417;47.454;18.918;2022-09-02T08:19:23;19.58;47.50
67603;DHT22;54417;47.454;18.918;2022-09-02T08:24:47;19.68;47.72
67603;DHT22;54417;47.454;18.918;2022-09-02T08:30:12;19.98;47.13
67603;DHT22;54417;47.454;18.918;2022-09-02T08:35:37;20.09;46.89
67603;DHT22;54417;47.454;18.918;2022-09-02T08:41:01;20.21;45.86
67603;DHT22;54417;47.454;18.918;2022-09-02T08:46:27;20.50;47.08
67603;DHT22;54417;47.454;18.918;2022-09-02T08:51:55;20.21;46.41
67603;DHT22;54417;47.454;18.918;2022-09-02T08:57:22;20.26;46.84
67603;DHT22;54417;47.454;18.918;2022-09-02T09:02:56;20.66;47.05
67603;DHT22;54417;47.454;18.918;2022-09-02T09:08:27;20.64;46.51
67603;DHT22;54417;47.454;18.918;2022-09-02T09:14:01;20.70;48.35
67603;DHT22;54417;47.454;18.918;2022-09-02T09:19:36;21.01;45.93
67603;DHT22;54417;47.454;18.918;2022-09-02T09:25:02;21.25;45.28
67603;DHT22;54417;47.454;18.918;2022-09-02T09:30:29;21.25;44.24
67603;DHT22;54417;47.454;18.918;2022-09-02T09:35:54;21.59;45.47
67603;DHT22;54417;47.454;18.918;2022-09-02T09:41:21;21.79;43.23
67603;DHT22;54417;47.454;18.918;2022-09-02T09:46:47;21.87;42.52
67603;DHT22;54417;47.454;18.918;2022-09-02T09:52:25;22.38;43.86
67603;DHT22;54417;47.454;18.918;2022-09-02T09:57:49;22.85;42.46
67603;DHT22;54417;47.454;18.918;2022-09-02T10:03:24;22.79;42.00
67603;DHT22;54417;47.454;18.918;2022-09-02T10:08:57;22.89;41.01
67603;DHT22;54417;47.454;18.918;2022-09-02T10:14:21;23.46;43.22
67603;DHT22;54417;47.454;18.918;2022-09-02T10:19:54;23.60;41.61
67603;DHT22;54417;47.454;18.918;2022-09-02T10:25:26;23.44;41.99
67603;DHT22;54417;47.454;18.918;2022-09-02T10:30:58;23.61;40.24
67603;DHT22;54417;47.454;18.918;2022-09-02T10:36:32;23.91;39.41
67603;DHT22;54417;47.454;18.918;2022-09-02T10:42:07;24.10;39.60
67603;DHT22;54417;47.454;18.918;2022-09-02T10:47:36;23.71;41.49
67603;DHT22;54417;47.454;18.918;2022-09-02T10:53:15;23.74;40.74
67603;DHT22;54417;47.454;18.918;2022-09-02T10:58:47;23.43;40.77
67603;DHT22;54417;47.454;18.918;2022-09-02T11:04:17;23.58;40.60
67603;DHT22;54417;47.454;18.918;2022-09-02T11:09:50;23.64;41.16
67603;DHT22;54417;47.454;18.918;2022-09-02T11:15:18;23.79;40.53
67603;DHT22;54417;47.454;18.918;2022-09-02T11:20:47;24.13;39.41
67603;DHT22;54417;47.454;18.918;2022-09-02T11:26:18;24.19;38.81
67603;DHT22;54417;47.454;18.918;2022-09-02T11:31:53;24.02;39.19
67603;DHT22;54417;47.454;18.918;2022-09-02T11:37:27;24.04;40.25
67603;DHT22;54417;47.454;18.918;2022-09-02T11:43:03;24.05;39.07
67603;DHT22;54417;47.454;18.918;2022-09-02T11:48:57;23.71;40.12
67603;DHT22;54417;47.454;18.918;2022-09-02T11:54:35;23.70;39.43
67603;DHT22;54417;47.454;18.918;2022-09-02T12:00:04;24.26;41.48
67603;DHT22;54417;47.454;18.918;2022-09-02T12:06:03;24.04;40.89
67603;DHT22;54417;47.454;18.918;2022-09-02T12:11:36;23.72;39.65
67603;DHT22;54417;47.454;18.918;2022-09-02T12:17:04;24.05;40.25
67603;DHT22;54417;47.454;18.918;2022-09-02T12:22:35;24.19;39.17
67603;DHT22;54417;47.454;18.918;2022-09-02T12:28:12;24.29;37.51
67603;DHT22;54417;47.454;18.918;2022-09-02T12:33:44;24.46;38.98
67603;DHT22;54417;47.454;18.918;2022-09-02T12:39:49;24.37;38.83
67603;DHT22;54417;47.454;18.918;2022-09-02T12:45:23;24.71;37.75
67603;DHT22;54417;47.454;18.918;2022-09-02T12:50:52;24.70;36.54
67603;DHT22;54417;47.454;18.918;2022-09-02T12:56:20;24.77;39.13
67603;DHT22;54417;47.454;18.918;2022-09-02T13:01:47;24.23;38.12
67603;DHT22;54417;47.454;18.918;2022-09-02T13:08:00;24.36;38.95
67603;DHT22;54417;47.454;18.918;2022-09-02T13:13:53;25.04;38.58
67603;DHT22;54417;47.454;18.918;2022-09-02T13:31:06;24.56;38.03
67603;DHT22;54417;47.454;18.918;2022-09-02T13:36:35;24.88;37.59
67603;DHT22;54417;47.454;18.918;2022-09-02T13:42:13;24.67;37.37
67603;DHT22;54417;47.454;18.918;2022-09-02T13:47:45;24.76;36.06
67603;DHT22;54417;47.454;18.918;2022-09-02T13:53:15;24.70;37.91
67603;DHT22;54417;47.454;18.918;2022-09-02T13:59:02;24.06;37.48
67603;DHT22;54417;47.454;18.918;2022-09-02T14:04:27;23.40;38.51
67603;DHT22;54417;47.454;18.918;2022-09-02T14:09:51;23.84;39.79
67603;DHT22;54417;47.454;18.918;2022-09-02T14:15:21;23.71;37.98
67603;DHT22;54417;47.454;18.918;2022-09-02T14:20:56;23.47;38.31
67603;DHT22;54417;47.454;18.918;2022-09-02T14:26:24;23.44;40.35
67603;DHT22;54417;47.454;18.918;2022-09-02T14:32:10;23.55;39.94
67603;DHT22;54417;47.454;18.918;2022-09-02T14:37:46;23.74;40.88
67603;DHT22;54417;47.454;18.918;2022-09-02T14:43:12;24.08;40.17
67603;DHT22;54417;47.454;18.918;2022-09-02T14:48:37;23.95;40.55
67603;DHT22;54417;47.454;18.918;2022-09-02T14:54:03;23.72;40.58
67603;DHT22;54417;47.454;18.918;2022-09-02T14:59:27;23.65;41.81
67603;DHT22;54417;47.454;18.918;2022-09-02T15:04:50;23.44;41.83
67603;DHT22;54417;47.454;18.918;2022-09-02T15:10:15;22.81;43.25
67603;DHT22;54417;47.454;18.918;2022-09-02T15:15:40;22.82;42.45
67603;DHT22;54417;47.454;18.918;2022-09-02T15:21:04;22.88;42.64
67603;DHT22;54417;47.454;18.918;2022-09-02T15:26:29;23.75;43.97
67603;DHT22;54417;47.454;18.918;2022-09-02T15:31:53;26.67;36.59
67603;DHT22;54417;47.454;18.918;2022-09-02T15:37:20;28.74;33.79
67603;DHT22;54417;47.454;18.918;2022-09-02T15:42:45;29.39;35.43
67603;DHT22;54417;47.454;18.918;2022-09-02T15:48:09;27.68;39.04
67603;DHT22;54417;47.454;18.918;2022-09-02T15:53:33;24.94;43.98
67603;DHT22;54417;47.454;18.918;2022-09-02T15:58:59;23.34;47.95
67603;DHT22;54417;47.454;18.918;2022-09-02T16:04:23;22.24;51.11
67603;DHT22;54417;47.454;18.918;2022-09-02T16:09:48;21.87;53.06
67603;DHT22;54417;47.454;18.918;2022-09-02T16:15:13;21.37;54.57
67603;DHT22;54417;47.454;18.918;2022-09-02T16:20:37;21.07;55.93
67603;DHT22;54417;47.454;18.918;2022-09-02T16:26:09;20.71;56.71
67603;DHT22;54417;47.454;18.918;2022-09-02T16:31:36;20.56;56.29
67603;DHT22;54417;47.454;18.918;2022-09-02T16:37:01;20.26;57.31
67603;DHT22;54417;47.454;18.918;2022-09-02T16:42:24;20.15;57.44
67603;DHT22;54417;47.454;18.918;2022-09-02T16:47:50;19.94;57.62
67603;DHT22;54417;47.454;18.918;2022-09-02T16:53:14;19.61;57.96
67603;DHT22;54417;47.454;18.918;2022-09-02T16:58:38;19.50;58.49
67603;DHT22;54417;47.454;18.918;2022-09-02T17:04:04;19.38;59.87
67603;DHT22;54417;47.454;18.918;2022-09-02T17:09:30;19.36;60.88
67603;DHT22;54417;47.454;18.918;2022-09-02T17:14:53;19.20;60.68
67603;DHT22;54417;47.454;18.918;2022-09-02T17:20:19;19.10;61.09
67603;DHT22;54417;47.454;18.918;2022-09-02T17:25:44;19.03;61.21
67603;DHT22;54417;47.454;18.918;2022-09-02T17:31:13;18.76;62.04
67603;DHT22;54417;47.454;18.918;2022-09-02T17:36:40;18.57;62.75
67603;DHT22;54417;47.454;18.918;2022-09-02T17:42:04;18.50;63.27
67603;DHT22;54417;47.454;18.918;2022-09-02T17:47:28;18.54;64.58
67603;DHT22;54417;47.454;18.918;2022-09-02T17:52:54;18.36;64.34
67603;DHT22;54417;47.454;18.918;2022-09-02T17:58:20;18.31;64.83
67603;DHT22;54417;47.454;18.918;2022-09-02T18:03:52;18.36;64.49
67603;DHT22;54417;47.454;18.918;2022-09-02T18:09:22;18.23;65.04
67603;DHT22;54417;47.454;18.918;2022-09-02T18:14:51;18.13;65.30
67603;DHT22;54417;47.454;18.918;2022-09-02T18:20:22;18.03;66.13
67603;DHT22;54417;47.454;18.918;2022-09-02T18:25:56;17.92;67.54
67603;DHT22;54417;47.454;18.918;2022-09-02T18:31:34;17.52;69.42
67603;DHT22;54417;47.454;18.918;2022-09-02T18:37:09;17.27;71.01
67603;DHT22;54417;47.454;18.918;2022-09-02T18:42:42;16.93;72.14
67603;DHT22;54417;47.454;18.918;2022-09-02T18:48:11;16.63;73.19
67603;DHT22;54417;47.454;18.918;2022-09-02T18:53:39;16.48;73.25
67603;DHT22;54417;47.454;18.918;2022-09-02T18:59:10;16.28;73.79
67603;DHT22;54417;47.454;18.918;2022-09-02T19:04:35;16.07;74.25
67603;DHT22;54417;47.454;18.918;2022-09-02T19:09:59;15.91;75.59
67603;DHT22;54417;47.454;18.918;2022-09-02T19:15:25;15.84;76.74
67603;DHT22;54417;47.454;18.918;2022-09-02T19:20:49;15.64;76.84
67603;DHT22;54417;47.454;18.918;2022-09-02T19:26:14;15.50;76.77
67603;DHT22;54417;47.454;18.918;2022-09-02T19:31:41;15.43;78.15
67603;DHT22;54417;47.454;18.918;2022-09-02T19:37:08;15.35;78.82
67603;DHT22;54417;47.454;18.918;2022-09-02T19:42:33;15.16;79.37
67603;DHT22;54417;47.454;18.918;2022-09-02T19:47:58;14.93;79.11
67603;DHT22;54417;47.454;18.918;2022-09-02T19:53:31;14.84;79.15
67603;DHT22;54417;47.454;18.918;2022-09-02T19:58:58;14.75;79.49
67603;DHT22;54417;47.454;18.918;2022-09-02T20:04:23;14.61;79.67
67603;DHT22;54417;47.454;18.918;2022-09-02T20:09:51;14.51;79.97
67603;DHT22;54417;47.454;18.918;2022-09-02T20:15:15;14.33;81.61
67603;DHT22;54417;47.454;18.918;2022-09-02T20:20:42;14.16;80.96
67603;DHT22;54417;47.454;18.918;2022-09-02T20:26:15;14.08;82.66
67603;DHT22;54417;47.454;18.918;2022-09-02T20:31:54;14.03;82.14
67603;DHT22;54417;47.454;18.918;2022-09-02T20:37:30;13.82;83.16
67603;DHT22;54417;47.454;18.918;2022-09-02T20:43:17;13.69;83.72
67603;DHT22;54417;47.454;18.918;2022-09-02T20:48:55;13.68;83.87
67603;DHT22;54417;47.454;18.918;2022-09-02T20:54:31;13.53;84.47
67603;DHT22;54417;47.454;18.918;2022-09-02T21:00:03;13.51;84.13
67603;DHT22;54417;47.454;18.918;2022-09-02T21:05:34;13.43;84.62
67603;DHT22;54417;47.454;18.918;2022-09-02T21:11:06;13.31;84.74
67603;DHT22;54417;47.454;18.918;2022-09-02T21:16:35;13.18;84.87
67603;DHT22;54417;47.454;18.918;2022-09-02T21:22:04;13.17;84.69
67603;DHT22;54417;47.454;18.918;2022-09-02T21:27:36;13.06;84.90
67603;DHT22;54417;47.454;18.918;2022-09-02T21:33:08;13.04;84.81
67603;DHT22;54417;47.454;18.918;2022-09-02T21:38:37;12.89;85.15
67603;DHT22;54417;47.454;18.918;2022-09-02T21:44:10;12.96;85.18
67603;DHT22;54417;47.454;18.918;2022-09-02T21:49:51;12.82;85.45
67603;DHT22;54417;47.454;18.918;2022-09-02T21:55:29;12.60;86.28
67603;DHT22;54417;47.454;18.918;2022-09-02T22:01:00;12.51;86.48
67603;DHT22;54417;47.454;18.918;2022-09-02T22:06:32;12.48;86.33
67603;DHT22;54417;47.454;18.918;2022-09-02T22:12:02;12.48;86.31
67603;DHT22;54417;47.454;18.918;2022-09-02T22:17:33;12.46;86.50
67603;DHT22;54417;47.454;18.918;2022-09-02T22:23:03;12.27;86.98
67603;DHT22;54417;47.454;18.918;2022-09-02T22:28:33;12.34;86.90
67603;DHT22;54417;47.454;18.918;2022-09-02T22:34:03;12.27;86.94
67603;DHT22;54417;47.454;18.918;2022-09-02T22:39:31;12.24;86.75
67603;DHT22;54417;47.454;18.918;2022-09-02T22:45:04;12.20;86.65
67603;DHT22;54417;47.454;18.918;2022-09-02T22:50:51;12.10;86.86
67603;DHT22;54417;47.454;18.918;2022-09-02T22:56:40;12.14;86.82
67603;DHT22;54417;47.454;18.918;2022-09-02T23:02:12;12.14;86.84
67603;DHT22;54417;47.454;18.918;2022-09-02T23:07:42;12.13;86.74
67603;DHT22;54417;47.454;18.918;2022-09-02T23:13:09;12.08;86.93
67603;DHT22;54417;47.454;18.918;2022-09-02T23:18:41;11.97;86.95
67603;DHT22;54417;47.454;18.918;2022-09-02T23:24:16;11.95;86.99
67603;DHT22;54417;47.454;18.918;2022-09-02T23:29:43;11.84;87.39
67603;DHT22;54417;47.454;18.918;2022-09-02T23:35:16;11.70;87.50
67603;DHT22;54417;47.454;18.918;2022-09-02T23:40:44;11.67;87.28
67603;DHT22;54417;47.454;18.918;2022-09-02T23:46:18;11.55;87.51
67603;DHT22;54417;47.454;18.918;2022-09-02T23:51:54;11.39;87.67
67603;DHT22;54417;47.454;18.918;2022-09-02T23:57:31;11.28;88.11
